sensor_id;sensor_type;location;lat;lon;timestamp;P1;durP1;ratioP1;P2;durP2;ratioP2
47804;SDS011;33568;45.286;9.900;2023-03-23T00:02:16;67.22;;;48.08;;
47804;SDS011;33568;45.286;9.900;2023-03-23T00:04:42;74.07;;;50.92;;
47804;SDS011;33568;45.286;9.900;2023-03-23T00:09:38;68.70;;;48.45;;
47804;SDS011;33568;45.286;9.900;2023-03-23T00:12:07;67.40;;;49.35;;
47804;SDS011;33568;45.286;9.900;2023-03-23T00:14:34;72.68;;;52.45;;
47804;SDS011;33568;45.286;9.900;2023-03-23T00:17:09;68.18;;;52.85;;
47804;SDS011;33568;45.286;9.900;2023-03-23T00:19:37;69.85;;;50.50;;
47804;SDS011;33568;45.286;9.900;2023-03-23T00:22:17;72.63;;;53.75;;
47804;SDS011;33568;45.286;9.900;2023-03-23T00:24:47;80.32;;;53.72;;
47804;SDS011;33568;45.286;9.900;2023-03-23T00:27:17;78.28;;;55.75;;
47804;SDS011;33568;45.286;9.900;2023-03-23T00:29:44;80.30;;;54.42;;
47804;SDS011;33568;45.286;9.900;2023-03-23T00:32:13;78.20;;;55.20;;
47804;SDS011;33568;45.286;9.900;2023-03-23T00:34:40;76.53;;;56.55;;
47804;SDS011;33568;45.286;9.900;2023-03-23T00:37:10;82.35;;;56.83;;
47804;SDS011;33568;45.286;9.900;2023-03-23T00:39:37;77.75;;;56.45;;
47804;SDS011;33568;45.286;9.900;2023-03-23T00:42:04;78.22;;;58.47;;
47804;SDS011;33568;45.286;9.900;2023-03-23T00:44:32;80.13;;;58.00;;
47804;SDS011;33568;45.286;9.900;2023-03-23T00:47:01;77.25;;;56.60;;
47804;SDS011;33568;45.286;9.900;2023-03-23T00:49:30;89.15;;;56.45;;
47804;SDS011;33568;45.286;9.900;2023-03-23T00:52:00;79.63;;;57.03;;
47804;SDS011;33568;45.286;9.900;2023-03-23T00:54:28;75.70;;;56.20;;
47804;SDS011;33568;45.286;9.900;2023-03-23T00:56:55;79.75;;;54.30;;
47804;SDS011;33568;45.286;9.900;2023-03-23T00:59:22;71.72;;;53.55;;
47804;SDS011;33568;45.286;9.900;2023-03-23T01:01:50;67.88;;;52.83;;
47804;SDS011;33568;45.286;9.900;2023-03-23T01:04:17;71.47;;;50.30;;
47804;SDS011;33568;45.286;9.900;2023-03-23T01:06:44;64.32;;;48.45;;
47804;SDS011;33568;45.286;9.900;2023-03-23T01:09:16;69.55;;;50.42;;
47804;SDS011;33568;45.286;9.900;2023-03-23T01:11:48;67.25;;;49.47;;
47804;SDS011;33568;45.286;9.900;2023-03-23T01:14:16;64.22;;;48.83;;
47804;SDS011;33568;45.286;9.900;2023-03-23T01:16:44;64.80;;;47.60;;
47804;SDS011;33568;45.286;9.900;2023-03-23T01:19:11;71.03;;;47.45;;
47804;SDS011;33568;45.286;9.900;2023-03-23T01:24:04;70.40;;;48.95;;
47804;SDS011;33568;45.286;9.900;2023-03-23T01:26:31;62.03;;;49.70;;
47804;SDS011;33568;45.286;9.900;2023-03-23T01:31:26;65.53;;;47.58;;
47804;SDS011;33568;45.286;9.900;2023-03-23T01:33:53;63.72;;;49.13;;
47804;SDS011;33568;45.286;9.900;2023-03-23T01:36:25;63.97;;;46.45;;
47804;SDS011;33568;45.286;9.900;2023-03-23T01:38:59;68.75;;;47.13;;
47804;SDS011;33568;45.286;9.900;2023-03-23T01:41:28;65.53;;;47.03;;
47804;SDS011;33568;45.286;9.900;2023-03-23T01:46:46;65.97;;;46.35;;
47804;SDS011;33568;45.286;9.900;2023-03-23T01:52:00;58.58;;;44.20;;
47804;SDS011;33568;45.286;9.900;2023-03-23T01:54:31;65.18;;;42.15;;
47804;SDS011;33568;45.286;9.900;2023-03-23T01:57:02;60.97;;;43.08;;
47804;SDS011;33568;45.286;9.900;2023-03-23T01:59:33;65.32;;;45.00;;
47804;SDS011;33568;45.286;9.900;2023-03-23T02:02:22;61.92;;;43.88;;
47804;SDS011;33568;45.286;9.900;2023-03-23T02:04:51;59.58;;;43.00;;
47804;SDS011;33568;45.286;9.900;2023-03-23T02:07:22;54.85;;;42.50;;
47804;SDS011;33568;45.286;9.900;2023-03-23T02:09:51;57.20;;;41.15;;
47804;SDS011;33568;45.286;9.900;2023-03-23T02:12:18;52.33;;;40.92;;
47804;SDS011;33568;45.286;9.900;2023-03-23T02:14:48;56.78;;;39.60;;
47804;SDS011;33568;45.286;9.900;2023-03-23T02:22:44;50.17;;;39.53;;
47804;SDS011;33568;45.286;9.900;2023-03-23T02:28:19;51.13;;;41.25;;
47804;SDS011;33568;45.286;9.900;2023-03-23T02:30:57;55.38;;;40.92;;
47804;SDS011;33568;45.286;9.900;2023-03-23T02:36:35;57.67;;;41.95;;
47804;SDS011;33568;45.286;9.900;2023-03-23T02:39:13;59.85;;;44.15;;
47804;SDS011;33568;45.286;9.900;2023-03-23T02:41:53;60.05;;;42.40;;
47804;SDS011;33568;45.286;9.900;2023-03-23T02:44:27;58.00;;;41.53;;
47804;SDS011;33568;45.286;9.900;2023-03-23T02:46:57;50.72;;;39.75;;
47804;SDS011;33568;45.286;9.900;2023-03-23T02:49:27;61.72;;;43.53;;
47804;SDS011;33568;45.286;9.900;2023-03-23T02:51:58;61.42;;;42.40;;
47804;SDS011;33568;45.286;9.900;2023-03-23T02:54:26;57.38;;;42.13;;
47804;SDS011;33568;45.286;9.900;2023-03-23T02:56:55;61.13;;;44.70;;
47804;SDS011;33568;45.286;9.900;2023-03-23T02:59:27;60.90;;;43.83;;
47804;SDS011;33568;45.286;9.900;2023-03-23T03:01:57;53.95;;;43.22;;
47804;SDS011;33568;45.286;9.900;2023-03-23T03:04:28;56.03;;;42.13;;
47804;SDS011;33568;45.286;9.900;2023-03-23T03:09:58;57.05;;;40.42;;
47804;SDS011;33568;45.286;9.900;2023-03-23T03:18:02;51.50;;;37.70;;
47804;SDS011;33568;45.286;9.900;2023-03-23T03:20:34;48.45;;;39.45;;
47804;SDS011;33568;45.286;9.900;2023-03-23T03:23:08;51.83;;;37.90;;
47804;SDS011;33568;45.286;9.900;2023-03-23T03:25:40;56.42;;;37.67;;
47804;SDS011;33568;45.286;9.900;2023-03-23T03:28:17;53.40;;;37.40;;
47804;SDS011;33568;45.286;9.900;2023-03-23T03:30:52;56.03;;;38.45;;
47804;SDS011;33568;45.286;9.900;2023-03-23T03:33:22;52.40;;;38.60;;
47804;SDS011;33568;45.286;9.900;2023-03-23T03:35:54;55.10;;;38.95;;
47804;SDS011;33568;45.286;9.900;2023-03-23T03:38:22;54.78;;;39.10;;
47804;SDS011;33568;45.286;9.900;2023-03-23T03:40:50;49.47;;;38.20;;
47804;SDS011;33568;45.286;9.900;2023-03-23T03:43:17;51.78;;;37.15;;
47804;SDS011;33568;45.286;9.900;2023-03-23T03:45:44;48.42;;;37.70;;
47804;SDS011;33568;45.286;9.900;2023-03-23T03:48:11;57.15;;;38.17;;
47804;SDS011;33568;45.286;9.900;2023-03-23T03:50:37;54.65;;;38.28;;
47804;SDS011;33568;45.286;9.900;2023-03-23T03:53:05;48.92;;;39.03;;
47804;SDS011;33568;45.286;9.900;2023-03-23T03:55:32;52.60;;;38.38;;
47804;SDS011;33568;45.286;9.900;2023-03-23T03:58:08;48.95;;;37.53;;
47804;SDS011;33568;45.286;9.900;2023-03-23T04:00:55;54.08;;;37.67;;
47804;SDS011;33568;45.286;9.900;2023-03-23T04:03:27;49.15;;;37.05;;
47804;SDS011;33568;45.286;9.900;2023-03-23T04:06:13;44.53;;;34.70;;
47804;SDS011;33568;45.286;9.900;2023-03-23T04:08:40;49.05;;;35.85;;
47804;SDS011;33568;45.286;9.900;2023-03-23T04:11:09;48.80;;;35.40;;
47804;SDS011;33568;45.286;9.900;2023-03-23T04:13:38;48.47;;;36.20;;
47804;SDS011;33568;45.286;9.900;2023-03-23T04:16:18;47.33;;;35.95;;
47804;SDS011;33568;45.286;9.900;2023-03-23T04:18:45;49.83;;;35.70;;
47804;SDS011;33568;45.286;9.900;2023-03-23T04:21:14;49.85;;;33.90;;
47804;SDS011;33568;45.286;9.900;2023-03-23T04:23:43;45.70;;;34.15;;
47804;SDS011;33568;45.286;9.900;2023-03-23T04:26:10;46.47;;;33.78;;
47804;SDS011;33568;45.286;9.900;2023-03-23T04:28:42;45.05;;;33.95;;
47804;SDS011;33568;45.286;9.900;2023-03-23T04:31:27;44.65;;;32.30;;
47804;SDS011;33568;45.286;9.900;2023-03-23T04:34:03;44.88;;;34.92;;
47804;SDS011;33568;45.286;9.900;2023-03-23T04:36:36;48.75;;;34.17;;
47804;SDS011;33568;45.286;9.900;2023-03-23T04:39:10;51.17;;;33.92;;
47804;SDS011;33568;45.286;9.900;2023-03-23T04:41:41;45.78;;;34.00;;
47804;SDS011;33568;45.286;9.900;2023-03-23T04:44:16;43.20;;;32.30;;
47804;SDS011;33568;45.286;9.900;2023-03-23T04:46:50;43.83;;;31.85;;
47804;SDS011;33568;45.286;9.900;2023-03-23T04:49:21;47.75;;;33.97;;
47804;SDS011;33568;45.286;9.900;2023-03-23T04:51:52;45.08;;;31.88;;
47804;SDS011;33568;45.286;9.900;2023-03-23T04:54:38;44.78;;;33.28;;
47804;SDS011;33568;45.286;9.900;2023-03-23T04:57:05;51.20;;;34.55;;
47804;SDS011;33568;45.286;9.900;2023-03-23T04:59:35;43.63;;;32.20;;
47804;SDS011;33568;45.286;9.900;2023-03-23T05:02:13;52.35;;;32.97;;
47804;SDS011;33568;45.286;9.900;2023-03-23T05:04:45;44.60;;;30.63;;
47804;SDS011;33568;45.286;9.900;2023-03-23T05:07:17;39.13;;;30.10;;
47804;SDS011;33568;45.286;9.900;2023-03-23T05:09:47;39.67;;;30.50;;
47804;SDS011;33568;45.286;9.900;2023-03-23T05:12:15;41.47;;;28.98;;
47804;SDS011;33568;45.286;9.900;2023-03-23T05:14:53;42.72;;;29.65;;
47804;SDS011;33568;45.286;9.900;2023-03-23T05:17:23;40.25;;;29.48;;
47804;SDS011;33568;45.286;9.900;2023-03-23T05:19:53;38.22;;;28.67;;
47804;SDS011;33568;45.286;9.900;2023-03-23T05:22:45;38.03;;;28.27;;
47804;SDS011;33568;45.286;9.900;2023-03-23T05:25:20;38.05;;;28.52;;
47804;SDS011;33568;45.286;9.900;2023-03-23T05:27:53;40.45;;;28.55;;
47804;SDS011;33568;45.286;9.900;2023-03-23T05:30:36;35.90;;;27.83;;
47804;SDS011;33568;45.286;9.900;2023-03-23T05:33:05;37.00;;;27.13;;
47804;SDS011;33568;45.286;9.900;2023-03-23T05:35:50;36.85;;;28.30;;
47804;SDS011;33568;45.286;9.900;2023-03-23T05:38:24;39.88;;;27.27;;
47804;SDS011;33568;45.286;9.900;2023-03-23T05:40:51;43.92;;;28.95;;
47804;SDS011;33568;45.286;9.900;2023-03-23T05:43:26;36.50;;;27.85;;
47804;SDS011;33568;45.286;9.900;2023-03-23T05:46:18;37.20;;;26.67;;
47804;SDS011;33568;45.286;9.900;2023-03-23T05:48:46;43.10;;;28.67;;
47804;SDS011;33568;45.286;9.900;2023-03-23T05:51:18;36.92;;;27.60;;
47804;SDS011;33568;45.286;9.900;2023-03-23T05:53:45;46.10;;;28.98;;
47804;SDS011;33568;45.286;9.900;2023-03-23T05:56:14;35.30;;;26.48;;
47804;SDS011;33568;45.286;9.900;2023-03-23T05:59:00;35.90;;;27.98;;
47804;SDS011;33568;45.286;9.900;2023-03-23T06:01:30;36.38;;;27.05;;
47804;SDS011;33568;45.286;9.900;2023-03-23T06:03:58;38.80;;;27.60;;
47804;SDS011;33568;45.286;9.900;2023-03-23T06:06:35;39.63;;;28.17;;
47804;SDS011;33568;45.286;9.900;2023-03-23T06:09:09;38.55;;;27.70;;
47804;SDS011;33568;45.286;9.900;2023-03-23T06:12:09;38.20;;;27.17;;
47804;SDS011;33568;45.286;9.900;2023-03-23T06:14:47;39.17;;;27.98;;
47804;SDS011;33568;45.286;9.900;2023-03-23T06:17:17;45.30;;;29.40;;
47804;SDS011;33568;45.286;9.900;2023-03-23T06:19:47;36.53;;;27.50;;
47804;SDS011;33568;45.286;9.900;2023-03-23T06:22:17;38.05;;;28.13;;
47804;SDS011;33568;45.286;9.900;2023-03-23T06:27:12;35.30;;;27.98;;
47804;SDS011;33568;45.286;9.900;2023-03-23T06:29:42;34.90;;;26.63;;
47804;SDS011;33568;45.286;9.900;2023-03-23T06:32:10;39.63;;;25.08;;
47804;SDS011;33568;45.286;9.900;2023-03-23T06:34:39;41.25;;;26.27;;
47804;SDS011;33568;45.286;9.900;2023-03-23T06:37:27;38.03;;;25.73;;
47804;SDS011;33568;45.286;9.900;2023-03-23T06:40:03;47.22;;;26.45;;
47804;SDS011;33568;45.286;9.900;2023-03-23T06:42:39;42.90;;;24.67;;
47804;SDS011;33568;45.286;9.900;2023-03-23T06:45:26;46.00;;;26.30;;
47804;SDS011;33568;45.286;9.900;2023-03-23T06:48:13;52.08;;;25.25;;
47804;SDS011;33568;45.286;9.900;2023-03-23T06:50:47;42.58;;;23.63;;
47804;SDS011;33568;45.286;9.900;2023-03-23T06:53:16;34.80;;;22.70;;
47804;SDS011;33568;45.286;9.900;2023-03-23T06:55:45;31.05;;;22.25;;
47804;SDS011;33568;45.286;9.900;2023-03-23T06:58:12;34.60;;;23.50;;
47804;SDS011;33568;45.286;9.900;2023-03-23T07:00:39;39.20;;;21.90;;
47804;SDS011;33568;45.286;9.900;2023-03-23T07:03:08;34.63;;;22.10;;
47804;SDS011;33568;45.286;9.900;2023-03-23T07:05:37;29.58;;;20.50;;
47804;SDS011;33568;45.286;9.900;2023-03-23T07:08:05;27.17;;;20.80;;
47804;SDS011;33568;45.286;9.900;2023-03-23T07:10:40;29.58;;;20.33;;
47804;SDS011;33568;45.286;9.900;2023-03-23T07:13:09;25.15;;;20.63;;
47804;SDS011;33568;45.286;9.900;2023-03-23T07:15:50;30.45;;;21.45;;
47804;SDS011;33568;45.286;9.900;2023-03-23T07:18:18;24.40;;;20.08;;
47804;SDS011;33568;45.286;9.900;2023-03-23T07:20:50;35.00;;;20.83;;
47804;SDS011;33568;45.286;9.900;2023-03-23T07:23:19;29.10;;;19.23;;
47804;SDS011;33568;45.286;9.900;2023-03-23T07:25:51;24.02;;;18.92;;
47804;SDS011;33568;45.286;9.900;2023-03-23T07:28:22;23.92;;;19.08;;
47804;SDS011;33568;45.286;9.900;2023-03-23T07:30:51;26.85;;;18.52;;
47804;SDS011;33568;45.286;9.900;2023-03-23T07:33:17;24.27;;;19.35;;
47804;SDS011;33568;45.286;9.900;2023-03-23T07:35:45;33.50;;;18.98;;
47804;SDS011;33568;45.286;9.900;2023-03-23T07:38:15;36.28;;;20.25;;
47804;SDS011;33568;45.286;9.900;2023-03-23T07:40:46;30.70;;;21.48;;
47804;SDS011;33568;45.286;9.900;2023-03-23T07:43:16;29.83;;;20.58;;
47804;SDS011;33568;45.286;9.900;2023-03-23T07:46:01;29.27;;;18.83;;
47804;SDS011;33568;45.286;9.900;2023-03-23T07:49:03;37.10;;;20.45;;
47804;SDS011;33568;45.286;9.900;2023-03-23T07:51:40;33.80;;;18.63;;
47804;SDS011;33568;45.286;9.900;2023-03-23T07:54:10;31.17;;;17.35;;
47804;SDS011;33568;45.286;9.900;2023-03-23T07:57:01;34.28;;;16.88;;
47804;SDS011;33568;45.286;9.900;2023-03-23T07:59:36;25.63;;;15.60;;
47804;SDS011;33568;45.286;9.900;2023-03-23T08:02:03;23.55;;;16.73;;
47804;SDS011;33568;45.286;9.900;2023-03-23T08:04:32;26.77;;;14.70;;
47804;SDS011;33568;45.286;9.900;2023-03-23T08:07:08;17.67;;;12.20;;
47804;SDS011;33568;45.286;9.900;2023-03-23T08:10:08;19.02;;;12.38;;
47804;SDS011;33568;45.286;9.900;2023-03-23T08:13:02;21.80;;;12.70;;
47804;SDS011;33568;45.286;9.900;2023-03-23T08:15:43;24.15;;;12.30;;
47804;SDS011;33568;45.286;9.900;2023-03-23T08:18:30;16.67;;;12.35;;
47804;SDS011;33568;45.286;9.900;2023-03-23T08:21:19;20.27;;;10.65;;
47804;SDS011;33568;45.286;9.900;2023-03-23T08:23:58;19.42;;;10.60;;
47804;SDS011;33568;45.286;9.900;2023-03-23T08:26:36;13.20;;;9.45;;
47804;SDS011;33568;45.286;9.900;2023-03-23T08:29:29;17.67;;;8.77;;
47804;SDS011;33568;45.286;9.900;2023-03-23T08:32:15;16.80;;;8.65;;
47804;SDS011;33568;45.286;9.900;2023-03-23T08:34:54;17.05;;;7.05;;
47804;SDS011;33568;45.286;9.900;2023-03-23T08:37:53;11.20;;;6.60;;
47804;SDS011;33568;45.286;9.900;2023-03-23T08:40:21;8.73;;;6.85;;
47804;SDS011;33568;45.286;9.900;2023-03-23T08:43:09;11.88;;;6.82;;
47804;SDS011;33568;45.286;9.900;2023-03-23T08:45:54;9.55;;;5.97;;
47804;SDS011;33568;45.286;9.900;2023-03-23T08:48:53;15.23;;;6.07;;
47804;SDS011;33568;45.286;9.900;2023-03-23T08:51:33;10.70;;;6.43;;
47804;SDS011;33568;45.286;9.900;2023-03-23T08:54:14;12.60;;;7.25;;
47804;SDS011;33568;45.286;9.900;2023-03-23T08:57:07;15.65;;;6.70;;
47804;SDS011;33568;45.286;9.900;2023-03-23T08:59:46;8.60;;;5.68;;
47804;SDS011;33568;45.286;9.900;2023-03-23T09:02:36;8.77;;;6.85;;
47804;SDS011;33568;45.286;9.900;2023-03-23T09:05:21;13.70;;;6.53;;
47804;SDS011;33568;45.286;9.900;2023-03-23T09:08:03;10.02;;;5.97;;
47804;SDS011;33568;45.286;9.900;2023-03-23T09:10:31;10.82;;;5.78;;
47804;SDS011;33568;45.286;9.900;2023-03-23T09:12:57;12.05;;;6.60;;
47804;SDS011;33568;45.286;9.900;2023-03-23T09:15:24;8.93;;;5.80;;
47804;SDS011;33568;45.286;9.900;2023-03-23T09:17:51;10.55;;;5.35;;
47804;SDS011;33568;45.286;9.900;2023-03-23T09:20:20;13.68;;;5.57;;
47804;SDS011;33568;45.286;9.900;2023-03-23T09:22:49;11.98;;;5.45;;
47804;SDS011;33568;45.286;9.900;2023-03-23T09:25:19;9.65;;;5.70;;
47804;SDS011;33568;45.286;9.900;2023-03-23T09:27:49;6.97;;;4.97;;
47804;SDS011;33568;45.286;9.900;2023-03-23T09:30:26;8.77;;;5.60;;
47804;SDS011;33568;45.286;9.900;2023-03-23T09:32:54;15.27;;;5.20;;
47804;SDS011;33568;45.286;9.900;2023-03-23T09:35:21;14.93;;;5.40;;
47804;SDS011;33568;45.286;9.900;2023-03-23T09:37:53;6.63;;;4.82;;
47804;SDS011;33568;45.286;9.900;2023-03-23T09:40:24;10.93;;;4.30;;
47804;SDS011;33568;45.286;9.900;2023-03-23T09:45:39;8.50;;;5.07;;
47804;SDS011;33568;45.286;9.900;2023-03-23T09:48:23;6.95;;;4.25;;
47804;SDS011;33568;45.286;9.900;2023-03-23T09:51:13;14.98;;;5.05;;
47804;SDS011;33568;45.286;9.900;2023-03-23T09:54:07;11.93;;;5.15;;
47804;SDS011;33568;45.286;9.900;2023-03-23T09:57:27;5.95;;;4.60;;
47804;SDS011;33568;45.286;9.900;2023-03-23T10:00:26;7.28;;;5.18;;
47804;SDS011;33568;45.286;9.900;2023-03-23T10:03:15;8.27;;;4.68;;
47804;SDS011;33568;45.286;9.900;2023-03-23T10:05:48;8.63;;;4.78;;
47804;SDS011;33568;45.286;9.900;2023-03-23T10:08:20;6.28;;;4.70;;
47804;SDS011;33568;45.286;9.900;2023-03-23T10:10:52;10.52;;;4.30;;
47804;SDS011;33568;45.286;9.900;2023-03-23T10:16:17;12.10;;;4.80;;
47804;SDS011;33568;45.286;9.900;2023-03-23T10:21:45;10.70;;;4.68;;
47804;SDS011;33568;45.286;9.900;2023-03-23T10:24:36;8.05;;;5.20;;
47804;SDS011;33568;45.286;9.900;2023-03-23T10:27:18;8.95;;;4.90;;
47804;SDS011;33568;45.286;9.900;2023-03-23T10:29:53;8.52;;;4.75;;
47804;SDS011;33568;45.286;9.900;2023-03-23T10:32:37;6.70;;;4.30;;
47804;SDS011;33568;45.286;9.900;2023-03-23T10:35:25;14.93;;;4.65;;
47804;SDS011;33568;45.286;9.900;2023-03-23T10:38:03;11.65;;;4.95;;
47804;SDS011;33568;45.286;9.900;2023-03-23T10:40:43;11.95;;;4.97;;
47804;SDS011;33568;45.286;9.900;2023-03-23T10:43:16;10.25;;;5.07;;
47804;SDS011;33568;45.286;9.900;2023-03-23T10:45:44;12.75;;;5.05;;
47804;SDS011;33568;45.286;9.900;2023-03-23T10:48:16;7.95;;;4.70;;
47804;SDS011;33568;45.286;9.900;2023-03-23T10:50:48;10.10;;;5.10;;
47804;SDS011;33568;45.286;9.900;2023-03-23T10:53:21;10.63;;;5.18;;
47804;SDS011;33568;45.286;9.900;2023-03-23T10:55:51;11.43;;;5.15;;
47804;SDS011;33568;45.286;9.900;2023-03-23T10:58:25;7.63;;;5.00;;
47804;SDS011;33568;45.286;9.900;2023-03-23T11:00:55;8.65;;;4.70;;
47804;SDS011;33568;45.286;9.900;2023-03-23T11:03:24;19.17;;;5.28;;
47804;SDS011;33568;45.286;9.900;2023-03-23T11:08:56;9.15;;;5.53;;
47804;SDS011;33568;45.286;9.900;2023-03-23T11:11:30;8.35;;;4.82;;
47804;SDS011;33568;45.286;9.900;2023-03-23T11:13:59;10.10;;;4.78;;
47804;SDS011;33568;45.286;9.900;2023-03-23T11:16:44;9.48;;;5.15;;
47804;SDS011;33568;45.286;9.900;2023-03-23T11:19:20;6.85;;;5.00;;
47804;SDS011;33568;45.286;9.900;2023-03-23T11:21:52;6.83;;;4.70;;
47804;SDS011;33568;45.286;9.900;2023-03-23T11:24:25;12.00;;;4.78;;
47804;SDS011;33568;45.286;9.900;2023-03-23T11:26:52;7.10;;;5.18;;
47804;SDS011;33568;45.286;9.900;2023-03-23T11:29:24;7.80;;;5.10;;
47804;SDS011;33568;45.286;9.900;2023-03-23T11:31:53;10.73;;;6.25;;
47804;SDS011;33568;45.286;9.900;2023-03-23T11:34:42;10.75;;;4.95;;
47804;SDS011;33568;45.286;9.900;2023-03-23T11:39:58;9.70;;;5.50;;
47804;SDS011;33568;45.286;9.900;2023-03-23T11:42:34;10.27;;;5.47;;
47804;SDS011;33568;45.286;9.900;2023-03-23T11:53:33;10.68;;;5.22;;
47804;SDS011;33568;45.286;9.900;2023-03-23T11:58:52;18.25;;;7.13;;
47804;SDS011;33568;45.286;9.900;2023-03-23T12:01:42;9.43;;;6.70;;
47804;SDS011;33568;45.286;9.900;2023-03-23T12:07:12;10.48;;;6.47;;
47804;SDS011;33568;45.286;9.900;2023-03-23T12:12:40;13.00;;;6.90;;
47804;SDS011;33568;45.286;9.900;2023-03-23T12:15:32;12.05;;;7.43;;
47804;SDS011;33568;45.286;9.900;2023-03-23T12:23:45;8.20;;;7.00;;
47804;SDS011;33568;45.286;9.900;2023-03-23T12:42:28;13.75;;;6.85;;
47804;SDS011;33568;45.286;9.900;2023-03-23T12:45:42;12.23;;;7.32;;
47804;SDS011;33568;45.286;9.900;2023-03-23T12:48:15;10.30;;;7.20;;
47804;SDS011;33568;45.286;9.900;2023-03-23T12:56:51;16.73;;;7.57;;
47804;SDS011;33568;45.286;9.900;2023-03-23T13:02:05;11.15;;;7.65;;
47804;SDS011;33568;45.286;9.900;2023-03-23T13:04:40;14.10;;;7.55;;
47804;SDS011;33568;45.286;9.900;2023-03-23T13:07:18;14.20;;;7.35;;
47804;SDS011;33568;45.286;9.900;2023-03-23T13:10:04;12.60;;;8.32;;
47804;SDS011;33568;45.286;9.900;2023-03-23T13:12:41;10.65;;;8.07;;
47804;SDS011;33568;45.286;9.900;2023-03-23T13:15:30;11.30;;;8.05;;
47804;SDS011;33568;45.286;9.900;2023-03-23T13:18:11;12.57;;;6.32;;
47804;SDS011;33568;45.286;9.900;2023-03-23T13:20:59;10.00;;;6.53;;
47804;SDS011;33568;45.286;9.900;2023-03-23T13:23:42;8.63;;;6.40;;
47804;SDS011;33568;45.286;9.900;2023-03-23T13:26:13;13.65;;;6.05;;
47804;SDS011;33568;45.286;9.900;2023-03-23T13:31:25;8.52;;;6.05;;
47804;SDS011;33568;45.286;9.900;2023-03-23T13:34:00;8.13;;;6.60;;
47804;SDS011;33568;45.286;9.900;2023-03-23T13:36:38;11.02;;;7.32;;
47804;SDS011;33568;45.286;9.900;2023-03-23T13:39:22;10.32;;;8.38;;
47804;SDS011;33568;45.286;9.900;2023-03-23T13:42:18;12.02;;;7.07;;
47804;SDS011;33568;45.286;9.900;2023-03-23T13:49:56;13.15;;;7.88;;
47804;SDS011;33568;45.286;9.900;2023-03-23T13:57:58;16.05;;;7.80;;
47804;SDS011;33568;45.286;9.900;2023-03-23T14:03:03;15.95;;;7.30;;
47804;SDS011;33568;45.286;9.900;2023-03-23T14:05:37;14.60;;;8.52;;
47804;SDS011;33568;45.286;9.900;2023-03-23T14:10:44;11.90;;;7.95;;
47804;SDS011;33568;45.286;9.900;2023-03-23T14:15:58;14.88;;;8.63;;
47804;SDS011;33568;45.286;9.900;2023-03-23T14:18:27;19.70;;;9.20;;
47804;SDS011;33568;45.286;9.900;2023-03-23T14:21:04;15.32;;;8.73;;
47804;SDS011;33568;45.286;9.900;2023-03-23T14:23:34;16.00;;;9.07;;
47804;SDS011;33568;45.286;9.900;2023-03-23T14:26:03;15.50;;;9.05;;
47804;SDS011;33568;45.286;9.900;2023-03-23T14:28:37;16.83;;;9.05;;
47804;SDS011;33568;45.286;9.900;2023-03-23T14:31:10;18.48;;;8.90;;
47804;SDS011;33568;45.286;9.900;2023-03-23T14:33:45;16.00;;;8.50;;
47804;SDS011;33568;45.286;9.900;2023-03-23T14:36:14;15.25;;;8.45;;
47804;SDS011;33568;45.286;9.900;2023-03-23T14:38:47;16.17;;;9.15;;
47804;SDS011;33568;45.286;9.900;2023-03-23T14:41:21;14.45;;;8.45;;
47804;SDS011;33568;45.286;9.900;2023-03-23T14:43:48;14.27;;;8.68;;
47804;SDS011;33568;45.286;9.900;2023-03-23T14:46:15;18.50;;;7.78;;
47804;SDS011;33568;45.286;9.900;2023-03-23T14:48:42;15.07;;;8.30;;
47804;SDS011;33568;45.286;9.900;2023-03-23T14:51:17;15.02;;;8.93;;
47804;SDS011;33568;45.286;9.900;2023-03-23T14:53:44;14.95;;;8.55;;
47804;SDS011;33568;45.286;9.900;2023-03-23T14:56:12;21.42;;;9.30;;
47804;SDS011;33568;45.286;9.900;2023-03-23T14:58:44;20.40;;;9.07;;
47804;SDS011;33568;45.286;9.900;2023-03-23T15:01:13;14.30;;;9.68;;
47804;SDS011;33568;45.286;9.900;2023-03-23T15:06:54;11.80;;;8.30;;
47804;SDS011;33568;45.286;9.900;2023-03-23T15:09:24;15.32;;;8.82;;
47804;SDS011;33568;45.286;9.900;2023-03-23T15:11:55;13.18;;;8.48;;
47804;SDS011;33568;45.286;9.900;2023-03-23T15:14:29;15.05;;;9.48;;
47804;SDS011;33568;45.286;9.900;2023-03-23T15:16:59;11.95;;;8.75;;
47804;SDS011;33568;45.286;9.900;2023-03-23T15:19:40;12.18;;;8.73;;
47804;SDS011;33568;45.286;9.900;2023-03-23T15:24:50;12.82;;;8.00;;
47804;SDS011;33568;45.286;9.900;2023-03-23T15:27:27;17.73;;;8.88;;
47804;SDS011;33568;45.286;9.900;2023-03-23T15:30:00;15.18;;;9.32;;
47804;SDS011;33568;45.286;9.900;2023-03-23T15:32:59;14.55;;;9.23;;
47804;SDS011;33568;45.286;9.900;2023-03-23T15:35:36;11.10;;;8.02;;
47804;SDS011;33568;45.286;9.900;2023-03-23T15:38:05;31.83;;;9.75;;
47804;SDS011;33568;45.286;9.900;2023-03-23T15:46:01;17.00;;;7.90;;
47804;SDS011;33568;45.286;9.900;2023-03-23T15:48:48;13.23;;;8.93;;
47804;SDS011;33568;45.286;9.900;2023-03-23T15:51:18;15.98;;;8.70;;
47804;SDS011;33568;45.286;9.900;2023-03-23T15:53:45;18.02;;;8.88;;
47804;SDS011;33568;45.286;9.900;2023-03-23T15:56:12;15.95;;;9.70;;
47804;SDS011;33568;45.286;9.900;2023-03-23T15:58:39;17.23;;;10.30;;
47804;SDS011;33568;45.286;9.900;2023-03-23T16:06:18;15.13;;;9.05;;
47804;SDS011;33568;45.286;9.900;2023-03-23T16:08:47;14.57;;;9.50;;
47804;SDS011;33568;45.286;9.900;2023-03-23T16:11:15;21.17;;;10.25;;
47804;SDS011;33568;45.286;9.900;2023-03-23T16:13:42;15.77;;;9.77;;
47804;SDS011;33568;45.286;9.900;2023-03-23T16:16:14;17.77;;;10.00;;
47804;SDS011;33568;45.286;9.900;2023-03-23T16:19:02;15.07;;;9.85;;
47804;SDS011;33568;45.286;9.900;2023-03-23T16:21:28;14.63;;;9.32;;
47804;SDS011;33568;45.286;9.900;2023-03-23T16:23:55;22.27;;;9.45;;
47804;SDS011;33568;45.286;9.900;2023-03-23T16:26:21;15.13;;;9.80;;
47804;SDS011;33568;45.286;9.900;2023-03-23T16:28:48;18.08;;;10.27;;
47804;SDS011;33568;45.286;9.900;2023-03-23T16:31:15;24.55;;;10.50;;
47804;SDS011;33568;45.286;9.900;2023-03-23T16:33:41;16.00;;;10.02;;
47804;SDS011;33568;45.286;9.900;2023-03-23T16:36:16;22.98;;;10.68;;
47804;SDS011;33568;45.286;9.900;2023-03-23T16:38:43;12.05;;;9.23;;
47804;SDS011;33568;45.286;9.900;2023-03-23T16:41:09;15.63;;;9.88;;
47804;SDS011;33568;45.286;9.900;2023-03-23T16:43:36;14.65;;;10.43;;
47804;SDS011;33568;45.286;9.900;2023-03-23T16:46:02;20.15;;;10.65;;
47804;SDS011;33568;45.286;9.900;2023-03-23T16:48:29;21.60;;;10.43;;
47804;SDS011;33568;45.286;9.900;2023-03-23T16:50:55;22.10;;;10.95;;
47804;SDS011;33568;45.286;9.900;2023-03-23T16:53:22;20.85;;;11.27;;
47804;SDS011;33568;45.286;9.900;2023-03-23T16:55:50;20.00;;;10.35;;
47804;SDS011;33568;45.286;9.900;2023-03-23T16:58:17;28.48;;;10.85;;
47804;SDS011;33568;45.286;9.900;2023-03-23T17:00:50;18.42;;;10.45;;
47804;SDS011;33568;45.286;9.900;2023-03-23T17:03:18;20.42;;;10.50;;
47804;SDS011;33568;45.286;9.900;2023-03-23T17:05:46;22.52;;;10.75;;
47804;SDS011;33568;45.286;9.900;2023-03-23T17:08:14;15.25;;;10.98;;
47804;SDS011;33568;45.286;9.900;2023-03-23T17:10:41;22.27;;;11.73;;
47804;SDS011;33568;45.286;9.900;2023-03-23T17:13:08;18.27;;;10.65;;
47804;SDS011;33568;45.286;9.900;2023-03-23T17:15:36;16.70;;;10.48;;
47804;SDS011;33568;45.286;9.900;2023-03-23T17:18:04;24.08;;;11.80;;
47804;SDS011;33568;45.286;9.900;2023-03-23T17:20:32;18.45;;;11.48;;
47804;SDS011;33568;45.286;9.900;2023-03-23T17:22:59;15.77;;;10.32;;